sensor_id;sensor_type;location;lat;lon;timestamp;P1;durP1;ratioP1;P2;durP2;ratioP2
19095;SDS011;9680;52.520;13.332;2023-11-19T00:00:01;13.60;;;5.70;;
19095;SDS011;9680;52.520;13.332;2023-11-19T00:02:32;11.23;;;5.50;;
19095;SDS011;9680;52.520;13.332;2023-11-19T00:04:59;11.67;;;5.80;;
19095;SDS011;9680;52.520;13.332;2023-11-19T00:07:26;12.70;;;5.90;;
19095;SDS011;9680;52.520;13.332;2023-11-19T00:09:53;14.83;;;5.50;;
19095;SDS011;9680;52.520;13.332;2023-11-19T00:12:20;9.77;;;5.20;;
19095;SDS011;9680;52.520;13.332;2023-11-19T00:14:47;10.93;;;5.40;;
19095;SDS011;9680;52.520;13.332;2023-11-19T00:17:15;11.53;;;5.80;;
19095;SDS011;9680;52.520;13.332;2023-11-19T00:19:42;11.97;;;5.50;;
19095;SDS011;9680;52.520;13.332;2023-11-19T00:22:09;15.23;;;5.63;;
19095;SDS011;9680;52.520;13.332;2023-11-19T00:24:35;13.17;;;6.13;;
19095;SDS011;9680;52.520;13.332;2023-11-19T00:27:02;11.20;;;5.67;;
19095;SDS011;9680;52.520;13.332;2023-11-19T00:29:29;12.37;;;5.50;;
19095;SDS011;9680;52.520;13.332;2023-11-19T00:31:56;13.90;;;6.20;;
19095;SDS011;9680;52.520;13.332;2023-11-19T00:34:25;10.07;;;4.63;;
19095;SDS011;9680;52.520;13.332;2023-11-19T00:36:51;10.13;;;5.37;;
19095;SDS011;9680;52.520;13.332;2023-11-19T00:39:20;10.37;;;5.20;;
19095;SDS011;9680;52.520;13.332;2023-11-19T00:41:47;10.77;;;5.27;;
19095;SDS011;9680;52.520;13.332;2023-11-19T00:44:14;12.90;;;5.33;;
19095;SDS011;9680;52.520;13.332;2023-11-19T00:46:41;11.93;;;5.30;;
19095;SDS011;9680;52.520;13.332;2023-11-19T00:49:08;9.97;;;5.27;;
19095;SDS011;9680;52.520;13.332;2023-11-19T00:51:38;12.40;;;6.23;;
19095;SDS011;9680;52.520;13.332;2023-11-19T00:54:05;11.70;;;5.40;;
19095;SDS011;9680;52.520;13.332;2023-11-19T00:56:31;10.37;;;5.13;;
19095;SDS011;9680;52.520;13.332;2023-11-19T00:58:58;12.40;;;5.50;;
19095;SDS011;9680;52.520;13.332;2023-11-19T01:01:25;11.30;;;5.13;;
19095;SDS011;9680;52.520;13.332;2023-11-19T01:03:51;9.70;;;5.20;;
19095;SDS011;9680;52.520;13.332;2023-11-19T01:06:26;10.60;;;5.23;;
19095;SDS011;9680;52.520;13.332;2023-11-19T01:08:55;10.43;;;4.97;;
19095;SDS011;9680;52.520;13.332;2023-11-19T01:11:22;12.23;;;5.27;;
19095;SDS011;9680;52.520;13.332;2023-11-19T01:13:49;8.83;;;4.73;;
19095;SDS011;9680;52.520;13.332;2023-11-19T01:16:16;16.17;;;5.00;;
19095;SDS011;9680;52.520;13.332;2023-11-19T01:18:44;11.40;;;4.90;;
19095;SDS011;9680;52.520;13.332;2023-11-19T01:21:11;9.17;;;4.60;;
19095;SDS011;9680;52.520;13.332;2023-11-19T01:23:39;8.73;;;4.50;;
19095;SDS011;9680;52.520;13.332;2023-11-19T01:26:09;8.50;;;4.60;;
19095;SDS011;9680;52.520;13.332;2023-11-19T01:28:37;10.93;;;4.80;;
19095;SDS011;9680;52.520;13.332;2023-11-19T01:31:04;11.30;;;5.17;;
19095;SDS011;9680;52.520;13.332;2023-11-19T01:33:31;11.53;;;5.00;;
19095;SDS011;9680;52.520;13.332;2023-11-19T01:35:58;10.03;;;4.90;;
19095;SDS011;9680;52.520;13.332;2023-11-19T01:38:25;13.87;;;4.93;;
19095;SDS011;9680;52.520;13.332;2023-11-19T01:40:55;9.87;;;4.70;;
19095;SDS011;9680;52.520;13.332;2023-11-19T01:43:33;10.33;;;4.70;;
19095;SDS011;9680;52.520;13.332;2023-11-19T01:46:00;12.07;;;4.93;;
19095;SDS011;9680;52.520;13.332;2023-11-19T01:48:28;9.57;;;4.93;;
19095;SDS011;9680;52.520;13.332;2023-11-19T01:50:56;10.00;;;4.67;;
19095;SDS011;9680;52.520;13.332;2023-11-19T01:53:23;11.83;;;5.00;;
19095;SDS011;9680;52.520;13.332;2023-11-19T01:55:50;12.77;;;5.20;;
19095;SDS011;9680;52.520;13.332;2023-11-19T01:58:18;9.20;;;4.60;;
19095;SDS011;9680;52.520;13.332;2023-11-19T02:00:47;11.90;;;5.00;;
19095;SDS011;9680;52.520;13.332;2023-11-19T02:03:14;10.13;;;4.73;;
19095;SDS011;9680;52.520;13.332;2023-11-19T02:05:42;10.43;;;5.30;;
19095;SDS011;9680;52.520;13.332;2023-11-19T02:08:08;10.10;;;5.07;;
19095;SDS011;9680;52.520;13.332;2023-11-19T02:10:36;11.77;;;5.10;;
19095;SDS011;9680;52.520;13.332;2023-11-19T02:13:05;10.10;;;4.73;;
19095;SDS011;9680;52.520;13.332;2023-11-19T02:15:32;9.70;;;4.70;;
19095;SDS011;9680;52.520;13.332;2023-11-19T02:20:45;10.33;;;4.60;;
19095;SDS011;9680;52.520;13.332;2023-11-19T02:23:12;9.67;;;4.90;;
19095;SDS011;9680;52.520;13.332;2023-11-19T02:25:40;9.77;;;4.67;;
19095;SDS011;9680;52.520;13.332;2023-11-19T02:28:08;9.10;;;4.60;;
19095;SDS011;9680;52.520;13.332;2023-11-19T02:30:37;9.20;;;4.50;;
19095;SDS011;9680;52.520;13.332;2023-11-19T02:33:04;9.23;;;4.43;;
19095;SDS011;9680;52.520;13.332;2023-11-19T02:35:32;11.77;;;4.80;;
19095;SDS011;9680;52.520;13.332;2023-11-19T02:37:59;9.53;;;4.13;;
19095;SDS011;9680;52.520;13.332;2023-11-19T02:40:26;11.10;;;4.60;;
19095;SDS011;9680;52.520;13.332;2023-11-19T02:42:53;9.07;;;4.47;;
19095;SDS011;9680;52.520;13.332;2023-11-19T02:45:22;8.10;;;4.30;;
19095;SDS011;9680;52.520;13.332;2023-11-19T02:47:50;9.50;;;4.07;;
19095;SDS011;9680;52.520;13.332;2023-11-19T02:50:17;9.00;;;4.20;;
19095;SDS011;9680;52.520;13.332;2023-11-19T02:52:50;8.77;;;4.00;;
19095;SDS011;9680;52.520;13.332;2023-11-19T02:55:18;8.87;;;4.67;;
19095;SDS011;9680;52.520;13.332;2023-11-19T02:57:45;9.57;;;4.60;;
19095;SDS011;9680;52.520;13.332;2023-11-19T03:00:14;9.07;;;4.37;;
19095;SDS011;9680;52.520;13.332;2023-11-19T03:02:42;6.57;;;3.63;;
19095;SDS011;9680;52.520;13.332;2023-11-19T03:05:11;7.60;;;4.17;;
19095;SDS011;9680;52.520;13.332;2023-11-19T03:07:40;8.40;;;4.13;;
19095;SDS011;9680;52.520;13.332;2023-11-19T03:10:08;10.00;;;4.00;;
19095;SDS011;9680;52.520;13.332;2023-11-19T03:12:38;7.33;;;3.77;;
19095;SDS011;9680;52.520;13.332;2023-11-19T03:15:06;7.80;;;3.90;;
19095;SDS011;9680;52.520;13.332;2023-11-19T03:17:35;7.70;;;3.90;;
19095;SDS011;9680;52.520;13.332;2023-11-19T03:20:05;7.90;;;4.20;;
19095;SDS011;9680;52.520;13.332;2023-11-19T03:22:34;6.60;;;3.43;;
19095;SDS011;9680;52.520;13.332;2023-11-19T03:25:03;6.87;;;3.43;;
19095;SDS011;9680;52.520;13.332;2023-11-19T03:27:33;8.17;;;4.00;;
19095;SDS011;9680;52.520;13.332;2023-11-19T03:30:01;10.37;;;3.87;;
19095;SDS011;9680;52.520;13.332;2023-11-19T03:32:29;8.77;;;3.80;;
19095;SDS011;9680;52.520;13.332;2023-11-19T03:34:57;7.63;;;4.27;;
19095;SDS011;9680;52.520;13.332;2023-11-19T03:37:26;10.33;;;4.00;;
19095;SDS011;9680;52.520;13.332;2023-11-19T03:39:53;7.33;;;3.97;;
19095;SDS011;9680;52.520;13.332;2023-11-19T03:42:20;10.30;;;4.23;;
19095;SDS011;9680;52.520;13.332;2023-11-19T03:44:47;9.37;;;4.60;;
19095;SDS011;9680;52.520;13.332;2023-11-19T03:47:15;9.93;;;4.27;;
19095;SDS011;9680;52.520;13.332;2023-11-19T03:49:42;10.70;;;4.47;;
19095;SDS011;9680;52.520;13.332;2023-11-19T03:52:09;11.53;;;4.73;;
19095;SDS011;9680;52.520;13.332;2023-11-19T03:54:37;8.53;;;4.30;;
19095;SDS011;9680;52.520;13.332;2023-11-19T03:57:04;9.60;;;4.53;;
19095;SDS011;9680;52.520;13.332;2023-11-19T03:59:31;8.30;;;4.40;;
19095;SDS011;9680;52.520;13.332;2023-11-19T04:01:59;11.33;;;4.40;;
19095;SDS011;9680;52.520;13.332;2023-11-19T04:04:27;8.20;;;4.17;;
19095;SDS011;9680;52.520;13.332;2023-11-19T04:06:54;11.13;;;5.00;;
19095;SDS011;9680;52.520;13.332;2023-11-19T04:09:21;10.37;;;5.00;;
19095;SDS011;9680;52.520;13.332;2023-11-19T04:11:49;10.67;;;4.73;;
19095;SDS011;9680;52.520;13.332;2023-11-19T04:14:16;9.77;;;4.57;;
19095;SDS011;9680;52.520;13.332;2023-11-19T04:16:43;9.07;;;4.50;;
19095;SDS011;9680;52.520;13.332;2023-11-19T04:19:10;13.23;;;4.53;;
19095;SDS011;9680;52.520;13.332;2023-11-19T04:21:37;9.63;;;4.77;;
19095;SDS011;9680;52.520;13.332;2023-11-19T04:24:07;10.90;;;4.70;;
19095;SDS011;9680;52.520;13.332;2023-11-19T04:26:39;9.93;;;4.70;;
19095;SDS011;9680;52.520;13.332;2023-11-19T04:29:08;10.83;;;4.37;;
19095;SDS011;9680;52.520;13.332;2023-11-19T04:31:36;9.83;;;4.93;;
19095;SDS011;9680;52.520;13.332;2023-11-19T04:34:03;8.13;;;4.13;;
19095;SDS011;9680;52.520;13.332;2023-11-19T04:36:30;9.87;;;4.60;;
19095;SDS011;9680;52.520;13.332;2023-11-19T04:38:57;10.27;;;4.97;;
19095;SDS011;9680;52.520;13.332;2023-11-19T04:41:24;9.67;;;4.10;;
19095;SDS011;9680;52.520;13.332;2023-11-19T04:43:52;9.17;;;4.50;;
19095;SDS011;9680;52.520;13.332;2023-11-19T04:46:20;12.50;;;4.53;;
19095;SDS011;9680;52.520;13.332;2023-11-19T04:48:48;10.57;;;4.60;;
19095;SDS011;9680;52.520;13.332;2023-11-19T04:51:15;14.97;;;5.17;;
19095;SDS011;9680;52.520;13.332;2023-11-19T04:53:42;11.17;;;4.60;;
19095;SDS011;9680;52.520;13.332;2023-11-19T04:56:09;10.50;;;4.53;;
19095;SDS011;9680;52.520;13.332;2023-11-19T04:58:37;9.07;;;5.00;;
19095;SDS011;9680;52.520;13.332;2023-11-19T05:01:04;9.00;;;4.93;;
19095;SDS011;9680;52.520;13.332;2023-11-19T05:03:32;9.90;;;4.80;;
19095;SDS011;9680;52.520;13.332;2023-11-19T05:05:59;10.17;;;4.57;;
19095;SDS011;9680;52.520;13.332;2023-11-19T05:08:26;12.10;;;4.93;;
19095;SDS011;9680;52.520;13.332;2023-11-19T05:10:52;11.73;;;5.13;;
19095;SDS011;9680;52.520;13.332;2023-11-19T05:13:19;10.13;;;4.60;;
19095;SDS011;9680;52.520;13.332;2023-11-19T05:15:46;9.87;;;4.53;;
19095;SDS011;9680;52.520;13.332;2023-11-19T05:18:13;9.70;;;4.80;;
19095;SDS011;9680;52.520;13.332;2023-11-19T05:20:41;11.10;;;4.83;;
19095;SDS011;9680;52.520;13.332;2023-11-19T05:23:08;13.20;;;5.37;;
19095;SDS011;9680;52.520;13.332;2023-11-19T05:25:34;10.87;;;4.43;;
19095;SDS011;9680;52.520;13.332;2023-11-19T05:28:03;9.47;;;4.57;;
19095;SDS011;9680;52.520;13.332;2023-11-19T05:30:29;10.13;;;4.70;;
19095;SDS011;9680;52.520;13.332;2023-11-19T05:32:56;11.87;;;4.90;;
19095;SDS011;9680;52.520;13.332;2023-11-19T05:35:23;9.37;;;4.43;;
19095;SDS011;9680;52.520;13.332;2023-11-19T05:37:51;8.10;;;4.23;;
19095;SDS011;9680;52.520;13.332;2023-11-19T05:40:18;11.23;;;4.60;;
19095;SDS011;9680;52.520;13.332;2023-11-19T05:42:45;9.83;;;4.60;;
19095;SDS011;9680;52.520;13.332;2023-11-19T05:45:12;7.63;;;3.90;;
19095;SDS011;9680;52.520;13.332;2023-11-19T05:47:39;11.20;;;3.87;;
19095;SDS011;9680;52.520;13.332;2023-11-19T05:50:06;9.27;;;4.17;;
19095;SDS011;9680;52.520;13.332;2023-11-19T05:52:33;9.27;;;4.57;;
19095;SDS011;9680;52.520;13.332;2023-11-19T05:55:01;7.87;;;4.00;;
19095;SDS011;9680;52.520;13.332;2023-11-19T05:57:29;10.83;;;4.50;;
19095;SDS011;9680;52.520;13.332;2023-11-19T05:59:56;8.57;;;4.53;;
19095;SDS011;9680;52.520;13.332;2023-11-19T06:02:24;9.07;;;4.60;;
19095;SDS011;9680;52.520;13.332;2023-11-19T06:04:52;7.07;;;3.77;;
19095;SDS011;9680;52.520;13.332;2023-11-19T06:07:19;8.60;;;4.40;;
19095;SDS011;9680;52.520;13.332;2023-11-19T06:09:46;9.17;;;4.53;;
19095;SDS011;9680;52.520;13.332;2023-11-19T06:12:14;8.00;;;3.77;;
19095;SDS011;9680;52.520;13.332;2023-11-19T06:14:41;8.33;;;4.37;;
19095;SDS011;9680;52.520;13.332;2023-11-19T06:17:07;9.17;;;4.57;;
19095;SDS011;9680;52.520;13.332;2023-11-19T06:19:36;8.87;;;4.20;;
19095;SDS011;9680;52.520;13.332;2023-11-19T06:22:03;10.37;;;4.73;;
19095;SDS011;9680;52.520;13.332;2023-11-19T06:24:30;7.30;;;3.90;;
19095;SDS011;9680;52.520;13.332;2023-11-19T06:26:57;8.43;;;4.40;;
19095;SDS011;9680;52.520;13.332;2023-11-19T06:29:25;9.80;;;4.33;;
19095;SDS011;9680;52.520;13.332;2023-11-19T06:31:52;8.10;;;4.20;;
19095;SDS011;9680;52.520;13.332;2023-11-19T06:34:19;7.80;;;4.07;;
19095;SDS011;9680;52.520;13.332;2023-11-19T06:36:45;8.33;;;4.27;;
19095;SDS011;9680;52.520;13.332;2023-11-19T06:39:13;9.80;;;4.23;;
19095;SDS011;9680;52.520;13.332;2023-11-19T06:41:44;7.93;;;3.80;;
19095;SDS011;9680;52.520;13.332;2023-11-19T06:44:11;10.90;;;4.80;;
19095;SDS011;9680;52.520;13.332;2023-11-19T06:46:40;8.67;;;4.30;;
19095;SDS011;9680;52.520;13.332;2023-11-19T06:49:06;8.43;;;4.33;;
19095;SDS011;9680;52.520;13.332;2023-11-19T06:51:33;7.83;;;3.93;;
19095;SDS011;9680;52.520;13.332;2023-11-19T06:54:00;8.37;;;4.07;;
19095;SDS011;9680;52.520;13.332;2023-11-19T06:56:27;8.90;;;4.33;;
19095;SDS011;9680;52.520;13.332;2023-11-19T06:58:54;9.17;;;4.20;;
19095;SDS011;9680;52.520;13.332;2023-11-19T07:01:21;8.23;;;4.10;;
19095;SDS011;9680;52.520;13.332;2023-11-19T07:03:49;8.90;;;4.23;;
19095;SDS011;9680;52.520;13.332;2023-11-19T07:06:17;8.53;;;4.20;;
19095;SDS011;9680;52.520;13.332;2023-11-19T07:08:44;9.20;;;4.10;;
19095;SDS011;9680;52.520;13.332;2023-11-19T07:11:11;7.33;;;3.73;;
19095;SDS011;9680;52.520;13.332;2023-11-19T07:13:39;7.47;;;4.20;;
19095;SDS011;9680;52.520;13.332;2023-11-19T07:16:07;9.53;;;4.50;;
19095;SDS011;9680;52.520;13.332;2023-11-19T07:18:35;9.20;;;4.00;;
19095;SDS011;9680;52.520;13.332;2023-11-19T07:21:03;8.17;;;3.87;;
19095;SDS011;9680;52.520;13.332;2023-11-19T07:23:31;7.17;;;3.80;;
19095;SDS011;9680;52.520;13.332;2023-11-19T07:25:58;6.17;;;3.30;;
19095;SDS011;9680;52.520;13.332;2023-11-19T07:28:25;6.93;;;3.73;;
19095;SDS011;9680;52.520;13.332;2023-11-19T07:30:54;6.73;;;3.80;;
19095;SDS011;9680;52.520;13.332;2023-11-19T07:33:22;7.77;;;3.90;;
19095;SDS011;9680;52.520;13.332;2023-11-19T07:35:48;8.43;;;4.20;;
19095;SDS011;9680;52.520;13.332;2023-11-19T07:38:17;6.73;;;3.70;;
19095;SDS011;9680;52.520;13.332;2023-11-19T07:40:44;6.83;;;3.73;;
19095;SDS011;9680;52.520;13.332;2023-11-19T07:43:11;7.77;;;3.23;;
19095;SDS011;9680;52.520;13.332;2023-11-19T07:45:37;6.50;;;3.47;;
19095;SDS011;9680;52.520;13.332;2023-11-19T07:48:04;7.00;;;3.57;;
19095;SDS011;9680;52.520;13.332;2023-11-19T07:50:31;7.67;;;3.70;;
19095;SDS011;9680;52.520;13.332;2023-11-19T07:52:58;7.40;;;4.03;;
19095;SDS011;9680;52.520;13.332;2023-11-19T07:55:26;8.17;;;3.60;;
19095;SDS011;9680;52.520;13.332;2023-11-19T07:57:53;7.87;;;3.70;;
19095;SDS011;9680;52.520;13.332;2023-11-19T08:00:20;7.50;;;3.93;;
19095;SDS011;9680;52.520;13.332;2023-11-19T08:02:47;7.87;;;3.70;;
19095;SDS011;9680;52.520;13.332;2023-11-19T08:05:14;7.27;;;3.73;;
19095;SDS011;9680;52.520;13.332;2023-11-19T08:07:41;7.97;;;3.83;;
19095;SDS011;9680;52.520;13.332;2023-11-19T08:10:08;7.60;;;3.63;;
19095;SDS011;9680;52.520;13.332;2023-11-19T08:12:37;7.47;;;3.33;;
19095;SDS011;9680;52.520;13.332;2023-11-19T08:15:04;9.73;;;3.97;;
19095;SDS011;9680;52.520;13.332;2023-11-19T08:17:32;8.53;;;3.70;;
19095;SDS011;9680;52.520;13.332;2023-11-19T08:19:58;8.20;;;3.50;;
19095;SDS011;9680;52.520;13.332;2023-11-19T08:22:26;6.63;;;3.40;;
19095;SDS011;9680;52.520;13.332;2023-11-19T08:24:53;9.03;;;4.00;;
19095;SDS011;9680;52.520;13.332;2023-11-19T08:27:19;9.13;;;4.17;;
19095;SDS011;9680;52.520;13.332;2023-11-19T08:29:53;6.37;;;3.60;;
19095;SDS011;9680;52.520;13.332;2023-11-19T08:32:22;9.63;;;4.10;;
19095;SDS011;9680;52.520;13.332;2023-11-19T08:34:48;9.43;;;4.10;;
19095;SDS011;9680;52.520;13.332;2023-11-19T08:37:15;9.47;;;4.00;;
19095;SDS011;9680;52.520;13.332;2023-11-19T08:39:43;8.23;;;4.07;;
19095;SDS011;9680;52.520;13.332;2023-11-19T08:42:10;6.27;;;3.43;;
19095;SDS011;9680;52.520;13.332;2023-11-19T08:44:37;6.93;;;3.90;;
19095;SDS011;9680;52.520;13.332;2023-11-19T08:47:05;7.73;;;3.70;;
19095;SDS011;9680;52.520;13.332;2023-11-19T08:49:32;8.63;;;4.07;;
19095;SDS011;9680;52.520;13.332;2023-11-19T08:51:58;7.07;;;4.00;;
19095;SDS011;9680;52.520;13.332;2023-11-19T08:54:25;7.27;;;3.90;;
19095;SDS011;9680;52.520;13.332;2023-11-19T08:56:52;8.67;;;4.13;;
19095;SDS011;9680;52.520;13.332;2023-11-19T08:59:19;7.37;;;3.77;;
19095;SDS011;9680;52.520;13.332;2023-11-19T09:01:45;6.73;;;3.67;;
19095;SDS011;9680;52.520;13.332;2023-11-19T09:04:13;6.77;;;4.07;;
19095;SDS011;9680;52.520;13.332;2023-11-19T09:06:41;7.33;;;3.67;;
19095;SDS011;9680;52.520;13.332;2023-11-19T09:09:09;6.63;;;3.40;;
19095;SDS011;9680;52.520;13.332;2023-11-19T09:11:35;7.10;;;3.97;;
19095;SDS011;9680;52.520;13.332;2023-11-19T09:14:03;7.03;;;3.60;;
19095;SDS011;9680;52.520;13.332;2023-11-19T09:16:30;9.83;;;4.03;;
19095;SDS011;9680;52.520;13.332;2023-11-19T09:18:57;7.07;;;3.37;;
19095;SDS011;9680;52.520;13.332;2023-11-19T09:21:26;7.00;;;3.70;;
19095;SDS011;9680;52.520;13.332;2023-11-19T09:23:54;8.73;;;4.30;;
19095;SDS011;9680;52.520;13.332;2023-11-19T09:26:21;8.80;;;3.80;;
19095;SDS011;9680;52.520;13.332;2023-11-19T09:28:48;9.13;;;4.00;;
19095;SDS011;9680;52.520;13.332;2023-11-19T09:31:14;7.80;;;3.80;;
19095;SDS011;9680;52.520;13.332;2023-11-19T09:33:42;7.30;;;3.43;;
19095;SDS011;9680;52.520;13.332;2023-11-19T09:36:09;6.90;;;3.30;;
19095;SDS011;9680;52.520;13.332;2023-11-19T09:38:40;8.40;;;3.53;;
19095;SDS011;9680;52.520;13.332;2023-11-19T09:41:07;5.63;;;3.17;;
19095;SDS011;9680;52.520;13.332;2023-11-19T09:43:35;5.77;;;3.20;;
19095;SDS011;9680;52.520;13.332;2023-11-19T09:46:04;9.87;;;3.03;;
19095;SDS011;9680;52.520;13.332;2023-11-19T09:48:32;4.90;;;2.90;;
19095;SDS011;9680;52.520;13.332;2023-11-19T09:51:00;5.33;;;3.00;;
19095;SDS011;9680;52.520;13.332;2023-11-19T09:53:27;5.20;;;2.63;;
19095;SDS011;9680;52.520;13.332;2023-11-19T09:55:56;5.40;;;2.90;;
19095;SDS011;9680;52.520;13.332;2023-11-19T09:58:22;5.63;;;2.40;;
19095;SDS011;9680;52.520;13.332;2023-11-19T10:00:49;4.20;;;2.20;;
19095;SDS011;9680;52.520;13.332;2023-11-19T10:03:17;5.30;;;2.40;;
19095;SDS011;9680;52.520;13.332;2023-11-19T10:05:44;4.57;;;2.10;;
19095;SDS011;9680;52.520;13.332;2023-11-19T10:08:12;5.33;;;2.20;;
19095;SDS011;9680;52.520;13.332;2023-11-19T10:10:39;5.53;;;1.80;;
19095;SDS011;9680;52.520;13.332;2023-11-19T10:13:07;4.37;;;1.93;;
19095;SDS011;9680;52.520;13.332;2023-11-19T10:15:35;5.47;;;2.00;;
19095;SDS011;9680;52.520;13.332;2023-11-19T10:18:04;7.27;;;2.03;;
19095;SDS011;9680;52.520;13.332;2023-11-19T10:20:35;3.27;;;1.80;;
19095;SDS011;9680;52.520;13.332;2023-11-19T10:23:02;7.73;;;1.87;;
19095;SDS011;9680;52.520;13.332;2023-11-19T10:25:29;2.20;;;1.40;;
19095;SDS011;9680;52.520;13.332;2023-11-19T10:27:57;4.90;;;1.60;;
19095;SDS011;9680;52.520;13.332;2023-11-19T10:30:25;7.33;;;1.83;;
19095;SDS011;9680;52.520;13.332;2023-11-19T10:33:04;6.13;;;1.90;;
19095;SDS011;9680;52.520;13.332;2023-11-19T10:35:32;6.00;;;1.70;;
19095;SDS011;9680;52.520;13.332;2023-11-19T10:37:59;4.13;;;1.80;;
19095;SDS011;9680;52.520;13.332;2023-11-19T10:40:39;4.63;;;1.90;;
19095;SDS011;9680;52.520;13.332;2023-11-19T10:43:06;5.23;;;1.57;;
19095;SDS011;9680;52.520;13.332;2023-11-19T10:45:35;5.03;;;1.87;;
19095;SDS011;9680;52.520;13.332;2023-11-19T10:48:02;5.88;;;1.90;;
19095;SDS011;9680;52.520;13.332;2023-11-19T10:50:32;8.20;;;1.80;;
19095;SDS011;9680;52.520;13.332;2023-11-19T10:52:59;9.18;;;2.13;;
19095;SDS011;9680;52.520;13.332;2023-11-19T10:55:27;7.75;;;1.80;;
19095;SDS011;9680;52.520;13.332;2023-11-19T10:57:58;8.23;;;2.33;;
19095;SDS011;9680;52.520;13.332;2023-11-19T11:00:26;13.02;;;2.35;;
19095;SDS011;9680;52.520;13.332;2023-11-19T11:03:01;11.05;;;2.17;;
19095;SDS011;9680;52.520;13.332;2023-11-19T11:05:29;8.97;;;2.37;;
19095;SDS011;9680;52.520;13.332;2023-11-19T11:07:58;12.23;;;2.17;;
19095;SDS011;9680;52.520;13.332;2023-11-19T11:10:28;6.68;;;2.28;;
19095;SDS011;9680;52.520;13.332;2023-11-19T11:12:59;8.70;;;2.30;;
19095;SDS011;9680;52.520;13.332;2023-11-19T11:15:29;7.87;;;2.23;;
19095;SDS011;9680;52.520;13.332;2023-11-19T11:17:59;9.00;;;2.20;;
19095;SDS011;9680;52.520;13.332;2023-11-19T11:20:28;9.60;;;2.23;;
19095;SDS011;9680;52.520;13.332;2023-11-19T11:23:02;9.77;;;2.43;;
19095;SDS011;9680;52.520;13.332;2023-11-19T11:25:45;8.23;;;2.13;;
19095;SDS011;9680;52.520;13.332;2023-11-19T11:28:26;10.90;;;2.43;;
19095;SDS011;9680;52.520;13.332;2023-11-19T11:31:08;10.40;;;2.73;;
19095;SDS011;9680;52.520;13.332;2023-11-19T11:33:45;9.80;;;2.78;;
19095;SDS011;9680;52.520;13.332;2023-11-19T11:36:28;10.13;;;2.33;;
19095;SDS011;9680;52.520;13.332;2023-11-19T11:38:58;13.83;;;2.70;;
19095;SDS011;9680;52.520;13.332;2023-11-19T11:41:26;11.87;;;2.70;;
19095;SDS011;9680;52.520;13.332;2023-11-19T11:43:53;13.38;;;2.65;;
19095;SDS011;9680;52.520;13.332;2023-11-19T11:49:27;10.73;;;2.40;;
19095;SDS011;9680;52.520;13.332;2023-11-19T11:51:58;14.60;;;2.53;;
19095;SDS011;9680;52.520;13.332;2023-11-19T11:54:28;15.70;;;2.72;;
19095;SDS011;9680;52.520;13.332;2023-11-19T11:57:08;7.13;;;2.55;;
19095;SDS011;9680;52.520;13.332;2023-11-19T11:59:37;9.20;;;2.72;;
19095;SDS011;9680;52.520;13.332;2023-11-19T12:02:14;11.75;;;2.58;;
19095;SDS011;9680;52.520;13.332;2023-11-19T12:04:45;13.55;;;2.83;;
19095;SDS011;9680;52.520;13.332;2023-11-19T12:07:14;20.77;;;3.42;;
19095;SDS011;9680;52.520;13.332;2023-11-19T12:09:46;11.60;;;2.53;;
19095;SDS011;9680;52.520;13.332;2023-11-19T12:12:18;14.25;;;3.05;;
19095;SDS011;9680;52.520;13.332;2023-11-19T12:17:42;12.60;;;2.72;;
19095;SDS011;9680;52.520;13.332;2023-11-19T12:20:16;16.85;;;2.70;;
19095;SDS011;9680;52.520;13.332;2023-11-19T12:22:43;9.02;;;2.60;;
19095;SDS011;9680;52.520;13.332;2023-11-19T12:25:12;10.98;;;2.67;;
19095;SDS011;9680;52.520;13.332;2023-11-19T12:27:39;12.63;;;2.50;;
19095;SDS011;9680;52.520;13.332;2023-11-19T12:30:07;16.80;;;2.70;;
19095;SDS011;9680;52.520;13.332;2023-11-19T12:32:38;14.23;;;2.63;;
19095;SDS011;9680;52.520;13.332;2023-11-19T12:35:06;18.30;;;3.10;;
19095;SDS011;9680;52.520;13.332;2023-11-19T12:37:41;12.20;;;2.65;;
19095;SDS011;9680;52.520;13.332;2023-11-19T12:40:12;17.65;;;3.58;;
19095;SDS011;9680;52.520;13.332;2023-11-19T12:42:40;13.45;;;3.00;;
19095;SDS011;9680;52.520;13.332;2023-11-19T12:45:07;10.38;;;2.45;;
19095;SDS011;9680;52.520;13.332;2023-11-19T12:47:35;16.50;;;2.70;;
19095;SDS011;9680;52.520;13.332;2023-11-19T12:50:03;17.90;;;4.45;;
19095;SDS011;9680;52.520;13.332;2023-11-19T12:52:31;13.13;;;3.05;;
19095;SDS011;9680;52.520;13.332;2023-11-19T12:55:00;10.98;;;2.53;;
19095;SDS011;9680;52.520;13.332;2023-11-19T12:57:39;13.43;;;2.67;;
19095;SDS011;9680;52.520;13.332;2023-11-19T13:00:07;11.32;;;2.67;;
19095;SDS011;9680;52.520;13.332;2023-11-19T13:02:45;18.55;;;2.80;;
19095;SDS011;9680;52.520;13.332;2023-11-19T13:05:25;14.05;;;2.85;;
19095;SDS011;9680;52.520;13.332;2023-11-19T13:08:00;19.23;;;3.38;;
19095;SDS011;9680;52.520;13.332;2023-11-19T13:10:29;12.32;;;2.60;;
19095;SDS011;9680;52.520;13.332;2023-11-19T13:13:00;15.55;;;2.70;;
19095;SDS011;9680;52.520;13.332;2023-11-19T13:15:31;15.25;;;3.50;;
19095;SDS011;9680;52.520;13.332;2023-11-19T13:17:58;13.68;;;2.60;;
19095;SDS011;9680;52.520;13.332;2023-11-19T13:20:25;19.17;;;3.03;;
19095;SDS011;9680;52.520;13.332;2023-11-19T13:22:56;14.30;;;2.95;;
19095;SDS011;9680;52.520;13.332;2023-11-19T13:25:24;15.23;;;2.97;;
19095;SDS011;9680;52.520;13.332;2023-11-19T13:27:52;13.63;;;2.97;;
19095;SDS011;9680;52.520;13.332;2023-11-19T13:30:19;13.13;;;2.72;;
19095;SDS011;9680;52.520;13.332;2023-11-19T13:32:47;23.90;;;3.63;;
19095;SDS011;9680;52.520;13.332;2023-11-19T13:35:14;16.80;;;3.47;;
19095;SDS011;9680;52.520;13.332;2023-11-19T13:37:42;9.40;;;2.33;;
19095;SDS011;9680;52.520;13.332;2023-11-19T13:40:10;12.77;;;2.80;;
19095;SDS011;9680;52.520;13.332;2023-11-19T13:42:39;17.27;;;3.03;;
19095;SDS011;9680;52.520;13.332;2023-11-19T13:45:09;16.40;;;3.10;;
19095;SDS011;9680;52.520;13.332;2023-11-19T13:47:39;12.90;;;3.77;;
19095;SDS011;9680;52.520;13.332;2023-11-19T13:50:08;17.33;;;3.25;;
19095;SDS011;9680;52.520;13.332;2023-11-19T13:52:36;14.88;;;2.95;;
19095;SDS011;9680;52.520;13.332;2023-11-19T13:55:04;16.77;;;2.65;;
19095;SDS011;9680;52.520;13.332;2023-11-19T13:57:33;22.05;;;3.35;;
19095;SDS011;9680;52.520;13.332;2023-11-19T14:00:00;16.30;;;3.43;;
19095;SDS011;9680;52.520;13.332;2023-11-19T14:02:35;18.60;;;3.35;;
19095;SDS011;9680;52.520;13.332;2023-11-19T14:05:02;16.13;;;3.65;;
19095;SDS011;9680;52.520;13.332;2023-11-19T14:07:30;16.42;;;3.13;;
19095;SDS011;9680;52.520;13.332;2023-11-19T14:09:58;19.20;;;3.90;;
19095;SDS011;9680;52.520;13.332;2023-11-19T14:12:24;12.85;;;3.33;;
19095;SDS011;9680;52.520;13.332;2023-11-19T14:14:51;14.40;;;3.53;;
19095;SDS011;9680;52.520;13.332;2023-11-19T14:17:18;19.63;;;3.20;;
19095;SDS011;9680;52.520;13.332;2023-11-19T14:19:46;23.30;;;3.53;;
19095;SDS011;9680;52.520;13.332;2023-11-19T14:22:13;17.70;;;3.13;;
19095;SDS011;9680;52.520;13.332;2023-11-19T14:24:39;18.10;;;3.42;;
19095;SDS011;9680;52.520;13.332;2023-11-19T14:27:08;13.77;;;3.33;;
19095;SDS011;9680;52.520;13.332;2023-11-19T14:29:35;13.68;;;3.08;;
19095;SDS011;9680;52.520;13.332;2023-11-19T14:32:02;23.90;;;2.97;;
19095;SDS011;9680;52.520;13.332;2023-11-19T14:34:29;16.08;;;3.72;;
19095;SDS011;9680;52.520;13.332;2023-11-19T14:36:57;16.08;;;3.25;;
19095;SDS011;9680;52.520;13.332;2023-11-19T14:39:25;17.83;;;3.28;;
19095;SDS011;9680;52.520;13.332;2023-11-19T14:41:52;16.48;;;2.85;;
19095;SDS011;9680;52.520;13.332;2023-11-19T14:44:23;12.98;;;2.92;;
19095;SDS011;9680;52.520;13.332;2023-11-19T14:46:49;17.02;;;3.42;;
19095;SDS011;9680;52.520;13.332;2023-11-19T14:49:16;12.75;;;2.65;;
19095;SDS011;9680;52.520;13.332;2023-11-19T14:51:43;16.00;;;3.17;;
19095;SDS011;9680;52.520;13.332;2023-11-19T14:54:11;21.73;;;3.65;;